Time;durP1;ratioP1;P1;durP2;ratioP2;P2;SDS_P1;SDS_P2;PMS_P1;PMS_P2;Temp;Humidity;BMP_temperature;BMP_pressure;BME280_temperature;BME280_humidity;BME280_pressure;Samples;Min_cycle;Max_cycle;Signal;HPM_P1;HPM_P2
2023/09/18 00:00:11;;;;;;;0.00;0.00;;;16.60;99.90;;;;;;5061339;28;20024;-79
2023/09/18 00:02:37;;;;;;;0.08;0.08;;;16.60;99.90;;;;;;5060403;28;20531;-79
2023/09/18 00:05:04;;;;;;;0.00;0.00;;;16.60;99.90;;;;;;5041697;28;20020;-82
2023/09/18 00:07:29;;;;;;;1.75;1.23;;;16.60;99.90;;;;;;5059448;28;20402;-79
2023/09/18 00:09:56;;;;;;;1.30;1.30;;;16.20;99.90;;;;;;5059770;28;20016;-78
2023/09/18 00:12:21;;;;;;;0.10;0.10;;;16.60;99.90;;;;;;5061030;28;20050;-78
2023/09/18 00:14:51;;;;;;;0.10;0.10;;;16.60;99.90;;;;;;5062117;28;20013;-78
2023/09/18 00:17:16;;;;;;;0.05;0.05;;;16.60;99.90;;;;;;5060998;28;20059;-77
2023/09/18 00:19:43;;;;;;;0.00;0.00;;;16.60;99.90;;;;;;5061473;28;20475;-79
2023/09/18 00:22:09;;;;;;;0.10;0.10;;;16.50;99.90;;;;;;5061306;28;20044;-79
2023/09/18 00:24:34;;;;;;;0.00;0.00;;;16.50;99.90;;;;;;5060409;28;20365;-78
2023/09/18 00:27:00;;;;;;;0.10;0.10;;;16.40;99.90;;;;;;5059806;28;20048;-79
2023/09/18 00:29:26;;;;;;;1.55;1.27;;;16.40;99.90;;;;;;5059296;28;20086;-79
2023/09/18 00:31:52;;;;;;;0.10;0.10;;;16.40;99.90;;;;;;5059051;28;20017;-76
2023/09/18 00:34:17;;;;;;;0.10;0.10;;;16.40;99.90;;;;;;5059295;28;20035;-77
2023/09/18 00:36:44;;;;;;;0.00;0.00;;;16.30;99.90;;;;;;5062284;28;20043;-75
2023/09/18 00:39:10;;;;;;;0.20;0.20;;;16.30;99.90;;;;;;5061246;28;20133;-81
2023/09/18 00:41:36;;;;;;;0.50;0.47;;;16.30;99.90;;;;;;5060482;28;21228;-80
2023/09/18 00:44:05;;;;;;;0.35;0.35;;;16.30;99.90;;;;;;5060183;28;20185;-78
2023/09/18 00:46:31;;;;;;;0.10;0.10;;;16.30;99.90;;;;;;5061148;28;20032;-77
2023/09/18 00:48:57;;;;;;;0.10;0.10;;;16.30;99.90;;;;;;5061260;28;20032;-80
2023/09/18 00:51:23;;;;;;;0.00;0.00;;;16.30;99.90;;;;;;5061718;28;20676;-78
2023/09/18 00:53:49;;;;;;;0.08;0.08;;;16.20;99.90;;;;;;5042053;28;20020;-78
2023/09/18 00:56:16;;;;;;;0.80;0.80;;;16.20;99.90;;;;;;5060076;28;20028;-76
2023/09/18 00:58:42;;;;;;;0.05;0.05;;;16.20;99.90;;;;;;5059410;28;20025;-80
2023/09/18 01:01:10;;;;;;;0.03;0.03;;;16.20;99.90;;;;;;5059236;28;20035;-80
2023/09/18 01:03:36;;;;;;;0.30;0.30;;;16.10;99.90;;;;;;5059496;28;20036;-83
2023/09/18 01:06:03;;;;;;;0.10;0.10;;;16.00;99.90;;;;;;5058166;28;20035;-75
2023/09/18 01:08:30;;;;;;;0.25;0.25;;;16.00;99.90;;;;;;5058043;28;20024;-77
2023/09/18 01:11:05;;;;;;;0.10;0.10;;;16.00;99.90;;;;;;5058093;28;20089;-76
2023/09/18 01:13:38;;;;;;;0.10;0.10;;;16.00;99.90;;;;;;5058140;28;20078;-77
2023/09/18 01:16:27;;;;;;;0.00;0.00;;;15.90;99.90;;;;;;5057582;28;20020;-76
2023/09/18 01:18:53;;;;;;;0.08;0.08;;;15.80;99.90;;;;;;5058195;28;20514;-76
2023/09/18 01:21:20;;;;;;;0.10;0.10;;;15.80;99.90;;;;;;5057797;28;20025;-76
2023/09/18 01:23:46;;;;;;;0.10;0.10;;;15.80;99.90;;;;;;5057457;28;20145;-77
2023/09/18 01:26:12;;;;;;;0.35;0.35;;;15.80;99.90;;;;;;5058466;28;20047;-79
2023/09/18 01:28:38;;;;;;;0.10;0.10;;;15.80;99.90;;;;;;5057953;28;20055;-76
2023/09/18 01:31:03;;;;;;;0.10;0.10;;;15.80;99.90;;;;;;5058136;28;20329;-84
2023/09/18 01:33:30;;;;;;;3.45;3.17;;;15.70;99.90;;;;;;5058003;28;20024;-76
2023/09/18 01:35:57;;;;;;;0.00;0.00;;;15.70;99.90;;;;;;5040130;28;20469;-80
2023/09/18 01:38:24;;;;;;;0.10;0.10;;;15.70;99.90;;;;;;5057607;28;20310;-77
2023/09/18 01:40:53;;;;;;;0.10;0.10;;;15.70;99.90;;;;;;5057564;28;20039;-77
2023/09/18 01:43:19;;;;;;;0.65;0.65;;;15.70;99.90;;;;;;5057766;28;20333;-79
2023/09/18 01:45:45;;;;;;;0.03;0.03;;;15.70;99.90;;;;;;5039762;28;20029;-76
2023/09/18 01:48:11;;;;;;;0.00;0.00;;;15.70;99.90;;;;;;5057645;28;20306;-77
2023/09/18 01:50:40;;;;;;;0.10;0.10;;;15.70;99.90;;;;;;5057880;28;20418;-84
2023/09/18 01:53:05;;;;;;;0.00;0.00;;;15.70;99.90;;;;;;5058642;28;20021;-81
2023/09/18 01:55:32;;;;;;;0.00;0.00;;;15.70;99.90;;;;;;5058666;28;20108;-79
2023/09/18 01:57:58;;;;;;;0.45;0.45;;;15.70;99.90;;;;;;5059097;28;20090;-77
2023/09/18 02:00:24;;;;;;;0.20;0.20;;;15.80;99.90;;;;;;5058493;28;20035;-77
2023/09/18 02:02:50;;;;;;;0.10;0.10;;;15.70;99.90;;;;;;5058275;28;20028;-76
2023/09/18 02:05:16;;;;;;;0.10;0.10;;;15.80;99.90;;;;;;5057877;28;20031;-77
2023/09/18 02:07:42;;;;;;;0.10;0.10;;;15.70;99.90;;;;;;5060803;28;20325;-81
2023/09/18 02:10:08;;;;;;;0.00;0.00;;;15.70;99.90;;;;;;5062733;28;20511;-76
2023/09/18 02:12:34;;;;;;;5.70;5.40;;;15.60;99.90;;;;;;5043858;28;20032;-77
2023/09/18 02:15:04;;;;;;;0.10;0.10;;;15.70;99.90;;;;;;5062061;28;20021;-75
2023/09/18 02:17:30;;;;;;;0.10;0.10;;;15.60;99.90;;;;;;5061272;28;20016;-78
2023/09/18 02:19:56;;;;;;;0.10;0.10;;;15.60;99.90;;;;;;5043813;28;20147;-76
2023/09/18 02:22:22;;;;;;;0.10;0.10;;;15.70;99.90;;;;;;5061902;28;20538;-79
2023/09/18 02:24:47;;;;;;;0.03;0.03;;;15.60;99.90;;;;;;5061552;28;20013;-81
2023/09/18 02:27:13;;;;;;;0.10;0.10;;;15.60;99.90;;;;;;5061166;28;20043;-76
2023/09/18 02:29:39;;;;;;;0.10;0.10;;;15.60;99.90;;;;;;5061261;28;20244;-78
2023/09/18 02:32:05;;;;;;;0.32;0.32;;;15.50;99.90;;;;;;5061581;28;20556;-77
2023/09/18 02:34:30;;;;;;;0.05;0.05;;;15.50;99.90;;;;;;5062163;28;20020;-75
2023/09/18 02:36:58;;;;;;;0.10;0.10;;;15.40;99.90;;;;;;5063147;28;20119;-76
2023/09/18 02:39:24;;;;;;;0.00;0.00;;;15.40;99.90;;;;;;5043386;28;20580;-79
2023/09/18 02:41:49;;;;;;;0.30;0.30;;;15.40;99.90;;;;;;5062087;28;20039;-83
2023/09/18 02:44:16;;;;;;;0.13;0.13;;;15.30;99.90;;;;;;5061916;28;20458;-77
2023/09/18 02:46:44;;;;;;;0.20;0.20;;;15.30;99.90;;;;;;5063677;28;20071;-77
2023/09/18 02:49:10;;;;;;;0.17;0.17;;;15.20;99.90;;;;;;5061378;28;20514;-77
2023/09/18 02:51:36;;;;;;;0.10;0.10;;;15.20;99.90;;;;;;5060880;28;20210;-83
2023/09/18 02:54:02;;;;;;;0.30;0.30;;;14.70;99.90;;;;;;5061887;28;20932;-80
2023/09/18 02:56:28;;;;;;;4.72;4.28;;;15.10;99.90;;;;;;5061382;28;20023;-77
2023/09/18 02:58:54;;;;;;;0.10;0.10;;;15.10;99.90;;;;;;5043716;28;20044;-78
2023/09/18 03:01:19;;;;;;;0.05;0.05;;;15.10;99.90;;;;;;5043078;28;20024;-81
2023/09/18 03:03:45;;;;;;;0.10;0.10;;;15.10;99.90;;;;;;5062097;28;20025;-75
2023/09/18 03:06:11;;;;;;;0.10;0.10;;;15.10;99.90;;;;;;5060896;28;20124;-76
2023/09/18 03:08:37;;;;;;;0.65;0.65;;;15.10;99.90;;;;;;5061471;28;20115;-78
2023/09/18 03:11:03;;;;;;;1.05;1.05;;;15.00;99.90;;;;;;5060668;28;20240;-80
2023/09/18 03:13:29;;;;;;;0.00;0.00;;;15.00;99.90;;;;;;5062104;28;20031;-77
2023/09/18 03:15:58;;;;;;;0.13;0.13;;;15.00;99.90;;;;;;5061617;28;20232;-88
2023/09/18 03:18:24;;;;;;;0.10;0.10;;;15.00;99.90;;;;;;5062928;28;20036;-84
2023/09/18 03:20:50;;;;;;;0.10;0.10;;;15.00;99.90;;;;;;5062317;28;20029;-75
2023/09/18 03:23:16;;;;;;;0.10;0.10;;;15.00;99.90;;;;;;5043538;28;20059;-76
2023/09/18 03:25:42;;;;;;;0.10;0.10;;;15.00;99.90;;;;;;5062605;28;20031;-76
2023/09/18 03:28:07;;;;;;;11.70;2.85;;;15.10;99.90;;;;;;5062440;28;20059;-75
2023/09/18 03:30:33;;;;;;;0.10;0.10;;;15.10;99.90;;;;;;5077231;28;20021;-76
2023/09/18 03:32:59;;;;;;;0.10;0.10;;;15.10;99.90;;;;;;5062697;28;20040;-77
2023/09/18 03:35:25;;;;;;;2.60;2.40;;;15.20;99.90;;;;;;5061318;28;20221;-76
2023/09/18 03:37:53;;;;;;;0.10;0.10;;;14.80;99.90;;;;;;5042740;28;20422;-75
2023/09/18 03:40:20;;;;;;;0.80;0.80;;;14.90;99.90;;;;;;5042906;28;20023;-78
2023/09/18 03:42:46;;;;;;;0.10;0.10;;;15.20;99.90;;;;;;5060151;28;20029;-77
2023/09/18 03:45:13;;;;;;;0.28;0.28;;;15.20;99.90;;;;;;5041925;28;20044;-80
2023/09/18 03:47:40;;;;;;;0.10;0.10;;;15.10;99.90;;;;;;5059580;28;20209;-78
2023/09/18 03:50:10;;;;;;;0.10;0.10;;;15.20;99.90;;;;;;5059951;28;20475;-77
2023/09/18 03:52:36;;;;;;;0.10;0.10;;;15.10;99.90;;;;;;5059743;28;20116;-77
2023/09/18 03:55:02;;;;;;;0.10;0.10;;;15.10;99.90;;;;;;5059302;28;20095;-81
2023/09/18 03:57:28;;;;;;;0.30;0.30;;;15.00;99.90;;;;;;5059759;28;20510;-75
2023/09/18 03:59:54;;;;;;;0.20;0.20;;;15.00;99.90;;;;;;5059794;28;20020;-76
2023/09/18 04:02:24;;;;;;;0.10;0.10;;;15.00;99.90;;;;;;5060081;28;20067;-76
2023/09/18 04:04:49;;;;;;;0.00;0.00;;;15.00;99.90;;;;;;5044935;28;20293;-76
2023/09/18 04:07:19;;;;;;;0.20;0.20;;;14.90;99.90;;;;;;5060700;28;20025;-76
2023/09/18 04:09:45;;;;;;;0.00;0.00;;;14.90;99.90;;;;;;5041799;28;20283;-81
2023/09/18 04:12:12;;;;;;;0.00;0.00;;;14.90;99.90;;;;;;5059756;28;20021;-78
2023/09/18 04:14:38;;;;;;;0.05;0.05;;;17.80;99.90;;;;;;5060521;28;20211;-75
2023/09/18 04:17:04;;;;;;;0.10;0.10;;;14.90;99.90;;;;;;5042803;28;20033;-74
2023/09/18 04:19:30;;;;;;;0.10;0.10;;;14.80;99.90;;;;;;5060770;28;20013;-75
2023/09/18 04:21:56;;;;;;;0.10;0.10;;;14.90;99.90;;;;;;5075513;28;20025;-76
2023/09/18 04:24:23;;;;;;;0.10;0.10;;;14.90;99.90;;;;;;5059284;28;20252;-83
2023/09/18 04:26:51;;;;;;;0.10;0.10;;;14.80;99.90;;;;;;5060375;28;20104;-77
2023/09/18 04:29:18;;;;;;;0.10;0.10;;;15.50;99.90;;;;;;5059839;28;20043;-86
2023/09/18 04:31:44;;;;;;;1.95;1.85;;;14.80;99.90;;;;;;5060577;28;20543;-84
2023/09/18 04:34:10;;;;;;;0.10;0.10;;;14.90;99.90;;;;;;5060443;28;20028;-78
2023/09/18 04:36:37;;;;;;;0.20;0.20;;;15.00;99.90;;;;;;5059948;28;20328;-78
2023/09/18 04:39:04;;;;;;;4.70;4.30;;;15.00;99.90;;;;;;5058745;28;20221;-77
2023/09/18 04:41:31;;;;;;;2.85;2.70;;;15.10;99.90;;;;;;5058697;28;20429;-78
2023/09/18 04:43:57;;;;;;;1.55;1.50;;;15.10;99.90;;;;;;5059244;28;20107;-77
2023/09/18 04:46:24;;;;;;;0.45;0.45;;;15.10;99.90;;;;;;5061325;28;20159;-77
2023/09/18 04:48:51;;;;;;;0.10;0.10;;;15.20;99.90;;;;;;5059579;28;20033;-82
2023/09/18 04:51:16;;;;;;;0.03;0.03;;;15.30;99.90;;;;;;5059437;28;20021;-81
2023/09/18 04:53:42;;;;;;;0.10;0.10;;;15.30;99.90;;;;;;5060740;28;20166;-82
2023/09/18 04:56:10;;;;;;;0.10;0.10;;;15.30;99.90;;;;;;5059938;28;20395;-76
2023/09/18 04:58:38;;;;;;;0.10;0.10;;;15.30;99.90;;;;;;5041776;28;20017;-85
2023/09/18 05:01:06;;;;;;;0.00;0.00;;;15.30;99.90;;;;;;5059406;28;20013;-80
2023/09/18 05:03:36;;;;;;;0.20;0.20;;;15.40;99.90;;;;;;5041984;28;20086;-78
2023/09/18 05:06:05;;;;;;;0.25;0.25;;;15.30;99.90;;;;;;5061028;28;20017;-78
2023/09/18 05:08:31;;;;;;;0.10;0.10;;;15.30;99.90;;;;;;5063232;28;20078;-78
2023/09/18 05:10:57;;;;;;;0.05;0.05;;;15.20;99.90;;;;;;5063627;28;20025;-80
2023/09/18 05:13:23;;;;;;;0.00;0.00;;;15.20;99.90;;;;;;5063813;28;20017;-83
2023/09/18 05:15:49;;;;;;;0.95;0.95;;;15.20;99.90;;;;;;5063093;28;20032;-77
2023/09/18 05:18:15;;;;;;;0.10;0.10;;;15.10;99.90;;;;;;5063224;28;20497;-78
2023/09/18 05:20:40;;;;;;;0.88;0.88;;;15.20;99.90;;;;;;5061369;28;20097;-79
2023/09/18 05:23:06;;;;;;;0.32;0.32;;;15.20;99.90;;;;;;5061422;28;20109;-86
2023/09/18 05:25:36;;;;;;;0.15;0.15;;;15.00;99.90;;;;;;5044048;28;20253;-78
2023/09/18 05:28:05;;;;;;;0.00;0.00;;;15.30;99.90;;;;;;5062047;28;20052;-79
2023/09/18 05:30:34;;;;;;;0.03;0.03;;;15.40;99.90;;;;;;5062698;28;20017;-88
2023/09/18 05:33:04;;;;;;;0.00;0.00;;;15.40;99.90;;;;;;5043605;28;20518;-83
2023/09/18 05:35:51;;;;;;;0.08;0.08;;;15.50;99.90;;;;;;5061198;28;20016;-89
2023/09/18 05:38:17;;;;;;;0.10;0.10;;;15.50;99.90;;;;;;5058538;28;20086;-77
2023/09/18 05:40:44;;;;;;;0.00;0.00;;;15.40;99.90;;;;;;5059794;28;20025;-77
2023/09/18 05:43:11;;;;;;;0.00;0.00;;;15.10;99.90;;;;;;5062157;28;20033;-76
2023/09/18 05:45:38;;;;;;;0.55;0.55;;;15.40;99.90;;;;;;5062441;28;20100;-84
2023/09/18 05:48:04;;;;;;;0.70;0.70;;;15.30;99.90;;;;;;5061671;28;20650;-78
2023/09/18 05:50:32;;;;;;;0.10;0.10;;;15.60;99.90;;;;;;5043480;28;20066;-82
2023/09/18 05:53:00;;;;;;;0.10;0.10;;;15.40;99.90;;;;;;5061896;28;20429;-79
2023/09/18 05:55:26;;;;;;;0.00;0.00;;;15.40;99.90;;;;;;5044624;28;20025;-84
2023/09/18 05:57:57;;;;;;;0.22;0.22;;;15.50;99.90;;;;;;5062100;28;20612;-82
2023/09/18 06:00:23;;;;;;;0.10;0.10;;;15.50;99.90;;;;;;5044413;28;20078;-78
2023/09/18 06:02:51;;;;;;;0.55;0.55;;;15.60;99.90;;;;;;5062211;28;20032;-82
2023/09/18 06:05:22;;;;;;;0.10;0.10;;;15.80;99.90;;;;;;5044591;28;20429;-79
2023/09/18 06:07:49;;;;;;;0.00;0.00;;;14.10;99.90;;;;;;5044835;28;20464;-78
2023/09/18 06:10:15;;;;;;;0.10;0.10;;;15.90;99.90;;;;;;5043699;28;20411;-79
2023/09/18 06:12:41;;;;;;;1.08;1.00;;;13.90;99.90;;;;;;5061770;28;20528;-78
2023/09/18 06:15:11;;;;;;;0.10;0.10;;;16.10;99.90;;;;;;5061583;28;20099;-77
2023/09/18 06:17:41;;;;;;;0.10;0.10;;;16.20;99.90;;;;;;5061055;28;20250;-80
2023/09/18 06:20:15;;;;;;;0.80;0.80;;;16.50;99.90;;;;;;5043282;28;20320;-85
2023/09/18 06:22:41;;;;;;;0.00;0.00;;;16.50;99.90;;;;;;5061129;28;20033;-79
2023/09/18 06:25:09;;;;;;;0.10;0.10;;;16.70;99.90;;;;;;5060803;28;20025;-80
2023/09/18 06:27:36;;;;;;;0.00;0.00;;;16.80;99.90;;;;;;5060636;28;20174;-76
2023/09/18 06:30:03;;;;;;;0.10;0.10;;;17.00;99.90;;;;;;5043246;28;20027;-76
2023/09/18 06:32:29;;;;;;;0.00;0.00;;;17.00;99.90;;;;;;5061235;28;20032;-77
2023/09/18 06:34:57;;;;;;;0.10;0.10;;;17.10;99.90;;;;;;5043012;28;20017;-80
2023/09/18 06:37:23;;;;;;;0.00;0.00;;;17.20;99.90;;;;;;5042694;28;20388;-77
2023/09/18 06:39:49;;;;;;;0.10;0.10;;;17.30;99.90;;;;;;5061705;28;20013;-78
2023/09/18 06:42:15;;;;;;;0.10;0.10;;;17.30;99.90;;;;;;5063179;28;20051;-80
2023/09/18 06:44:41;;;;;;;0.10;0.10;;;17.20;99.90;;;;;;5043246;28;20048;-80
2023/09/18 06:47:07;;;;;;;0.20;0.20;;;17.30;99.90;;;;;;5061063;28;20056;-79
2023/09/18 06:49:33;;;;;;;0.00;0.00;;;17.40;99.90;;;;;;5060690;28;20567;-76
2023/09/18 06:51:59;;;;;;;0.28;0.28;;;17.40;99.90;;;;;;5060210;28;20021;-77
2023/09/18 06:54:25;;;;;;;0.00;0.00;;;17.50;99.90;;;;;;5061818;28;20066;-78
2023/09/18 06:56:51;;;;;;;0.20;0.20;;;17.70;99.90;;;;;;5061582;28;20036;-77
2023/09/18 06:59:17;;;;;;;0.00;0.00;;;17.90;99.90;;;;;;5060845;28;20423;-80
2023/09/18 07:01:43;;;;;;;0.22;0.22;;;17.90;99.90;;;;;;5060676;28;20114;-82
2023/09/18 07:04:09;;;;;;;0.00;0.00;;;18.00;99.90;;;;;;5042682;28;20048;-87
2023/09/18 07:06:35;;;;;;;0.10;0.10;;;18.10;99.90;;;;;;5061073;28;20025;-84
2023/09/18 07:09:01;;;;;;;0.10;0.10;;;18.20;99.90;;;;;;5061976;28;20570;-82
2023/09/18 07:11:27;;;;;;;0.32;0.32;;;18.30;99.90;;;;;;5045537;28;20267;-83
2023/09/18 07:13:53;;;;;;;0.00;0.00;;;18.40;99.90;;;;;;5044040;28;20045;-81
2023/09/18 07:16:19;;;;;;;0.05;0.05;;;18.50;99.90;;;;;;5063434;28;20040;-83
2023/09/18 07:18:45;;;;;;;0.22;0.22;;;19.20;99.90;;;;;;5044958;28;20028;-76
2023/09/18 07:21:11;;;;;;;2.67;1.42;;;18.70;99.90;;;;;;5061669;28;20466;-86
2023/09/18 07:23:39;;;;;;;0.38;0.38;;;18.70;99.90;;;;;;5059906;28;20032;-76
2023/09/18 07:26:06;;;;;;;0.10;0.10;;;18.80;99.90;;;;;;5041900;28;20709;-80
2023/09/18 07:28:32;;;;;;;0.00;0.00;;;19.00;99.90;;;;;;5042273;28;20053;-81
2023/09/18 07:31:05;;;;;;;0.10;0.10;;;19.20;99.90;;;;;;5041859;28;20013;-77
2023/09/18 07:33:30;;;;;;;0.52;0.43;;;19.50;99.90;;;;;;5041747;28;20094;-77
2023/09/18 07:35:57;;;;;;;0.10;0.10;;;19.60;99.90;;;;;;5042415;28;20079;-77
2023/09/18 07:38:24;;;;;;;0.30;0.30;;;19.70;99.90;;;;;;5075228;28;20139;-77
2023/09/18 07:40:50;;;;;;;0.00;0.00;;;19.90;99.90;;;;;;5059752;28;20682;-78
2023/09/18 07:43:16;;;;;;;0.63;0.63;;;20.00;99.90;;;;;;5059021;28;20151;-77
2023/09/18 07:45:42;;;;;;;0.85;0.85;;;20.10;99.90;;;;;;5059511;28;20147;-78
2023/09/18 07:48:08;;;;;;;0.10;0.10;;;20.10;99.90;;;;;;5074417;28;20329;-77
2023/09/18 07:50:35;;;;;;;0.10;0.10;;;20.20;99.90;;;;;;5025085;28;20017;-80
2023/09/18 07:53:01;;;;;;;0.00;0.00;;;19.50;99.90;;;;;;5041920;28;20021;-77
2023/09/18 07:55:29;;;;;;;1.08;0.90;;;20.30;99.90;;;;;;5059563;28;20025;-77
2023/09/18 07:57:55;;;;;;;0.50;0.50;;;20.50;99.90;;;;;;5041700;28;20421;-76
2023/09/18 08:00:22;;;;;;;0.20;0.20;;;20.70;99.90;;;;;;5059404;28;20020;-77
2023/09/18 08:02:49;;;;;;;0.10;0.10;;;20.80;99.90;;;;;;5059352;28;20317;-78
2023/09/18 08:05:16;;;;;;;0.00;0.00;;;20.70;99.90;;;;;;5008090;28;20203;-76
2023/09/18 08:07:42;;;;;;;4.95;1.05;;;21.10;99.90;;;;;;5058991;28;20074;-77
2023/09/18 08:10:08;;;;;;;0.00;0.00;;;21.20;99.90;;;;;;5058949;28;20519;-78
2023/09/18 08:12:37;;;;;;;0.10;0.10;;;21.20;99.90;;;;;;5041333;28;20025;-76
2023/09/18 08:15:05;;;;;;;0.00;0.00;;;21.40;99.90;;;;;;5058732;28;20042;-77
2023/09/18 08:17:31;;;;;;;0.38;0.38;;;21.50;99.90;;;;;;5041300;28;20250;-77
2023/09/18 08:19:58;;;;;;;6.80;4.97;;;21.70;99.90;;;;;;5058903;28;20111;-77
2023/09/18 08:22:24;;;;;;;0.10;0.10;;;21.80;99.90;;;;;;5040395;28;20032;-77
2023/09/18 08:24:52;;;;;;;0.10;0.10;;;22.00;99.90;;;;;;5075068;28;20020;-80
2023/09/18 08:27:18;;;;;;;0.00;0.00;;;22.10;99.90;;;;;;5060213;28;20052;-78
2023/09/18 08:29:47;;;;;;;0.15;0.15;;;20.90;99.90;;;;;;5061152;28;20035;-77
2023/09/18 08:32:13;;;;;;;0.30;0.30;;;22.10;99.90;;;;;;5063350;28;20205;-78
2023/09/18 08:34:39;;;;;;;0.03;0.03;;;22.10;99.90;;;;;;5062443;28;20488;-77
2023/09/18 08:37:05;;;;;;;0.93;0.85;;;22.20;99.90;;;;;;5075782;28;20450;-86
2023/09/18 08:39:33;;;;;;;0.28;0.28;;;22.00;99.90;;;;;;5058609;28;20337;-76
2023/09/18 08:42:03;;;;;;;0.00;0.00;;;22.20;99.90;;;;;;5058152;28;20052;-80
2023/09/18 08:44:30;;;;;;;0.00;0.00;;;22.30;99.90;;;;;;5059174;28;20039;-77
2023/09/18 08:46:56;;;;;;;0.13;0.13;;;22.40;99.90;;;;;;5042474;28;20020;-78
2023/09/18 08:49:24;;;;;;;0.22;0.22;;;20.90;99.90;;;;;;5060023;28;20056;-77
2023/09/18 08:51:55;;;;;;;0.00;0.00;;;22.90;99.90;;;;;;5059353;28;20055;-77
2023/09/18 08:54:23;;;;;;;0.05;0.05;;;23.20;99.90;;;;;;5059829;28;20052;-80
2023/09/18 08:56:53;;;;;;;0.00;0.00;;;23.10;99.90;;;;;;5058954;28;20213;-80
2023/09/18 08:59:24;;;;;;;1.48;1.38;;;23.50;99.90;;;;;;5059193;28;20502;-80
2023/09/18 09:01:50;;;;;;;0.80;0.80;;;23.70;99.90;;;;;;5058886;28;20035;-79
2023/09/18 09:04:16;;;;;;;0.65;0.65;;;23.80;99.90;;;;;;5059353;28;20045;-77
2023/09/18 09:06:43;;;;;;;0.00;0.00;;;24.00;99.90;;;;;;5041346;28;20056;-77
2023/09/18 09:09:12;;;;;;;0.00;0.00;;;24.00;99.90;;;;;;5059618;28;20021;-76
2023/09/18 09:11:39;;;;;;;0.00;0.00;;;24.30;99.90;;;;;;5041455;28;20025;-77
2023/09/18 09:14:17;;;;;;;0.00;0.00;;;24.40;99.90;;;;;;5060243;28;20103;-77
2023/09/18 09:16:50;;;;;;;0.13;0.13;;;24.40;99.90;;;;;;5042692;28;20398;-76
2023/09/18 09:19:18;;;;;;;0.00;0.00;;;24.60;99.90;;;;;;5059427;28;20503;-80
2023/09/18 09:21:44;;;;;;;0.10;0.10;;;24.70;99.90;;;;;;5060955;28;20021;-76
2023/09/18 09:24:14;;;;;;;0.05;0.05;;;24.80;99.90;;;;;;5044100;28;20060;-79
2023/09/18 09:26:41;;;;;;;0.00;0.00;;;21.80;99.90;;;;;;5062005;28;20036;-81
2023/09/18 09:29:18;;;;;;;0.10;0.10;;;25.00;99.90;;;;;;5061848;28;20044;-76
2023/09/18 09:31:46;;;;;;;0.20;0.20;;;25.10;99.90;;;;;;5060448;28;20093;-77
2023/09/18 09:34:12;;;;;;;0.20;0.20;;;25.20;99.90;;;;;;5061264;28;20521;-76
2023/09/18 09:36:53;;;;;;;0.10;0.10;;;25.30;99.90;;;;;;5063805;28;20321;-80
2023/09/18 09:39:21;;;;;;;0.00;0.00;;;25.40;99.90;;;;;;5060783;28;20110;-83
2023/09/18 09:41:48;;;;;;;0.00;0.00;;;25.50;99.90;;;;;;5063155;28;20020;-84
2023/09/18 09:44:14;;;;;;;0.15;0.15;;;25.70;99.90;;;;;;5062942;28;20518;-77
2023/09/18 09:46:51;;;;;;;0.00;0.00;;;25.70;99.90;;;;;;5044125;28;20035;-77
2023/09/18 09:49:19;;;;;;;0.03;0.03;;;25.90;99.90;;;;;;5042013;28;20159;-83
2023/09/18 09:51:47;;;;;;;0.10;0.10;;;25.90;99.90;;;;;;5043717;28;20009;-78
2023/09/18 09:54:14;;;;;;;0.03;0.03;;;26.00;99.90;;;;;;5042660;28;20059;-77
2023/09/18 09:56:53;;;;;;;0.10;0.10;;;26.10;99.90;;;;;;5059036;28;20277;-78
2023/09/18 09:59:20;;;;;;;0.73;0.73;;;26.30;99.90;;;;;;5043636;28;20021;-80
2023/09/18 10:01:50;;;;;;;0.43;0.43;;;26.40;99.90;;;;;;5062195;28;20043;-77
2023/09/18 10:04:18;;;;;;;0.00;0.00;;;26.40;99.90;;;;;;5043485;28;20025;-76
2023/09/18 10:06:56;;;;;;;0.20;0.20;;;26.50;99.90;;;;;;5045042;28;20029;-76
2023/09/18 10:09:23;;;;;;;0.30;0.20;;;26.80;99.90;;;;;;5046210;28;20024;-78
2023/09/18 10:11:52;;;;;;;0.15;0.15;;;27.00;99.50;;;;;;5060798;28;20069;-77
2023/09/18 10:14:31;;;;;;;6.13;3.78;;;26.90;99.60;;;;;;5041867;28;20025;-78
2023/09/18 10:17:02;;;;;;;0.00;0.00;;;26.90;99.40;;;;;;5042127;28;20037;-77
2023/09/18 10:20:10;;;;;;;0.00;0.00;;;28.50;99.80;;;;;;5041669;28;20099;-75
2023/09/18 10:22:46;;;;;;;0.00;0.00;;;27.40;98.60;;;;;;5029267;28;20407;-79
2023/09/18 10:25:21;;;;;;;0.00;0.00;;;28.50;99.10;;;;;;5059849;28;20009;-77
2023/09/18 10:27:58;;;;;;;0.65;0.60;;;27.30;98.10;;;;;;5045213;28;20425;-76
2023/09/18 10:30:25;;;;;;;0.22;0.13;;;27.50;97.10;;;;;;5045187;28;20033;-78
2023/09/18 10:32:51;;;;;;;0.80;0.80;;;27.70;97.30;;;;;;5065187;28;20059;-78
2023/09/18 10:35:19;;;;;;;2.08;0.80;;;28.10;97.20;;;;;;5045406;28;20029;-78
2023/09/18 10:37:47;;;;;;;0.05;0.05;;;28.10;95.40;;;;;;5045942;28;20571;-77
2023/09/18 10:40:14;;;;;;;0.47;0.47;;;28.20;95.00;;;;;;5044168;28;20081;-79
2023/09/18 10:42:41;;;;;;;0.38;0.30;;;28.10;95.00;;;;;;5046846;28;20032;-78
2023/09/18 10:45:12;;;;;;;0.00;0.00;;;28.20;94.40;;;;;;5064911;28;20020;-77
2023/09/18 10:47:47;;;;;;;0.00;0.00;;;28.40;94.00;;;;;;5030232;28;20020;-76
2023/09/18 10:50:24;;;;;;;0.28;0.20;;;28.50;93.00;;;;;;5063942;28;20382;-76
2023/09/18 10:52:50;;;;;;;0.00;0.00;;;28.60;92.10;;;;;;5063457;28;20044;-77
2023/09/18 10:55:17;;;;;;;0.73;0.43;;;28.90;91.30;;;;;;5063143;28;20412;-78
2023/09/18 10:57:57;;;;;;;0.32;0.20;;;29.10;90.80;;;;;;5063772;28;20035;-77
2023/09/18 11:00:28;;;;;;;0.00;0.00;;;29.30;90.40;;;;;;5044259;28;20402;-75
2023/09/18 11:03:09;;;;;;;1.50;0.95;;;29.60;90.10;;;;;;5029275;28;20533;-77
2023/09/18 11:05:36;;;;;;;0.10;0.10;;;29.60;89.90;;;;;;5061672;28;20390;-79
2023/09/18 11:08:28;;;;;;;0.70;0.47;;;29.80;87.70;;;;;;5063896;28;20036;-77
2023/09/18 11:11:09;;;;;;;0.00;0.00;;;29.90;87.80;;;;;;5062072;28;20054;-81
2023/09/18 11:13:46;;;;;;;0.17;0.17;;;30.20;86.60;;;;;;5045849;28;20012;-80
2023/09/18 11:16:19;;;;;;;0.10;0.10;;;30.20;86.10;;;;;;5066267;28;20096;-78
2023/09/18 11:18:54;;;;;;;0.73;0.70;;;30.20;85.60;;;;;;5066398;28;20016;-78
2023/09/18 11:21:47;;;;;;;0.00;0.00;;;30.40;85.30;;;;;;5065379;28;20482;-78
2023/09/18 11:24:21;;;;;;;;;;;30.50;84.50;;;;;;5019987;28;20041;-83
2023/09/18 11:26:49;;;;;;;9.32;0.90;;;30.30;83.70;;;;;;5022197;28;20496;-83
2023/09/18 11:29:23;;;;;;;1.80;1.00;;;30.40;82.70;;;;;;5001008;28;20061;-76
2023/09/18 11:31:53;;;;;;;0.10;0.10;;;30.40;83.80;;;;;;5003758;28;20305;-77
2023/09/18 11:34:28;;;;;;;0.15;0.15;;;30.80;85.90;;;;;;5004942;28;20124;-77
2023/09/18 11:36:55;;;;;;;2.08;0.55;;;31.00;82.90;;;;;;5004550;28;20189;-79
2023/09/18 11:39:40;;;;;;;0.35;0.35;;;31.20;83.80;;;;;;5004653;28;20041;-77
2023/09/18 11:42:09;;;;;;;0.08;0.08;;;31.70;83.00;;;;;;5022336;28;20088;-78
2023/09/18 11:44:40;;;;;;;0.00;0.00;;;31.70;84.70;;;;;;5005098;28;20033;-77
2023/09/18 11:47:27;;;;;;;3.90;0.70;;;32.20;85.80;;;;;;5002719;28;20390;-78
2023/09/18 11:49:55;;;;;;;0.50;0.38;;;32.30;82.30;;;;;;5022389;28;20087;-79
2023/09/18 11:52:26;;;;;;;0.30;0.30;;;32.60;81.80;;;;;;5023213;28;20037;-77
2023/09/18 11:54:54;;;;;;;0.75;0.52;;;32.80;79.40;;;;;;5037664;28;20099;-77
2023/09/18 11:57:22;;;;;;;0.08;0.08;;;33.00;79.10;;;;;;5067703;28;20031;-76
2023/09/18 11:59:50;;;;;;;0.70;0.60;;;33.30;78.20;;;;;;5048618;28;20246;-85
2023/09/18 12:02:34;;;;;;;0.47;0.40;;;33.60;77.40;;;;;;5065428;28;20071;-78
2023/09/18 12:05:17;;;;;;;0.10;0.10;;;33.40;75.80;;;;;;5065312;28;20644;-77
2023/09/18 12:07:45;;;;;;;0.10;0.10;;;33.30;75.00;;;;;;5066115;28;20261;-77
2023/09/18 12:10:18;;;;;;;0.40;0.40;;;33.20;75.00;;;;;;5068396;28;20039;-76
2023/09/18 12:12:44;;;;;;;0.35;0.35;;;33.20;75.10;;;;;;5067681;28;20028;-79
2023/09/18 12:15:19;;;;;;;0.35;0.35;;;33.30;75.40;;;;;;5066773;28;20478;-78
2023/09/18 12:17:45;;;;;;;0.52;0.52;;;33.10;74.60;;;;;;5050283;28;20066;-76
2023/09/18 12:20:20;;;;;;;0.30;0.30;;;33.00;76.00;;;;;;5065114;28;20028;-76
2023/09/18 12:22:52;;;;;;;0.00;0.00;;;33.20;75.10;;;;;;5061916;28;20054;-76
2023/09/18 12:25:18;;;;;;;0.50;0.43;;;32.90;74.20;;;;;;5060707;28;20029;-76
2023/09/18 12:27:44;;;;;;;0.35;0.35;;;32.90;74.00;;;;;;5061190;28;20055;-76
2023/09/18 12:30:11;;;;;;;0.55;0.13;;;32.70;73.80;;;;;;5061442;28;20048;-77
2023/09/18 12:32:38;;;;;;;1.52;1.48;;;32.50;73.90;;;;;;5062894;28;20100;-78
2023/09/18 12:35:07;;;;;;;0.90;0.90;;;32.40;74.80;;;;;;5063327;28;20032;-77
2023/09/18 12:37:35;;;;;;;0.80;0.80;;;32.40;73.40;;;;;;5069604;28;20157;-77
2023/09/18 12:40:10;;;;;;;0.00;0.00;;;32.40;73.80;;;;;;5063940;28;20243;-76
2023/09/18 12:42:40;;;;;;;0.10;0.10;;;32.50;73.70;;;;;;5043021;28;20048;-76
2023/09/18 12:45:07;;;;;;;0.00;0.00;;;32.60;74.90;;;;;;5061345;28;20027;-75
2023/09/18 12:47:35;;;;;;;0.00;0.00;;;33.20;75.00;;;;;;5061802;28;20103;-79
2023/09/18 12:50:04;;;;;;;0.00;0.00;;;32.60;73.60;;;;;;5061781;28;20709;-78
2023/09/18 12:52:31;;;;;;;0.20;0.20;;;33.40;74.60;;;;;;5061646;28;20046;-78